createdAt,value
2024-03-22T00:00:52.065Z,71.45
2024-03-22T00:01:52.132Z,71.61
2024-03-22T00:02:52.170Z,71.48
2024-03-22T00:03:52.228Z,71.59
2024-03-22T00:04:52.285Z,71.69
2024-03-22T00:58:05.495Z,73.59
2024-03-22T00:58:53.882Z,73.02
2024-03-22T00:59:53.906Z,72.78
2024-03-22T01:00:53.944Z,72.56
2024-03-22T01:01:53.979Z,72.53
2024-03-22T01:02:54.012Z,72.43
2024-03-22T01:03:54.055Z,72.36
2024-03-22T01:04:54.100Z,72.30
2024-03-22T01:05:54.134Z,72.15
2024-03-22T01:06:54.177Z,72.07
2024-03-22T01:07:54.207Z,72.12
2024-03-22T01:08:54.256Z,72.16
2024-03-22T01:09:54.283Z,72.08
2024-03-22T01:10:54.330Z,71.85
2024-03-22T01:12:05.459Z,71.84
2024-03-22T01:13:06.438Z,71.66
2024-03-22T01:14:06.474Z,71.64
2024-03-22T01:15:06.438Z,71.87
2024-03-22T01:16:06.426Z,71.75
2024-03-22T01:17:06.432Z,71.63
2024-03-22T01:18:06.424Z,71.50
2024-03-22T01:19:06.444Z,71.46
2024-03-22T01:20:06.411Z,71.49
2024-03-22T01:21:06.417Z,71.85
2024-03-22T01:22:06.429Z,71.74
2024-03-22T01:23:06.427Z,71.72
2024-03-22T01:24:06.428Z,71.84
2024-03-22T01:25:06.429Z,71.94
2024-03-22T01:26:06.422Z,72.41
2024-03-22T01:27:06.425Z,72.31
2024-03-22T01:28:06.440Z,71.98
2024-03-22T01:29:06.412Z,72.07
2024-03-22T01:30:06.424Z,72.14
2024-03-22T01:31:06.429Z,72.04
2024-03-22T01:32:06.403Z,71.79
2024-03-22T01:33:06.404Z,71.49
2024-03-22T01:34:06.415Z,71.48
2024-03-22T01:35:06.389Z,71.47
2024-03-22T01:36:06.397Z,71.59
2024-03-22T01:37:06.385Z,71.68
2024-03-22T01:38:06.384Z,71.80
2024-03-22T01:39:06.368Z,71.97
2024-03-22T01:40:06.378Z,72.05
2024-03-22T01:41:06.351Z,72.03
2024-03-22T01:42:06.340Z,71.88
2024-03-22T01:43:06.333Z,71.83
2024-03-22T01:44:06.323Z,71.56
2024-03-22T01:45:06.308Z,71.44
2024-03-22T01:46:06.324Z,71.32
2024-03-22T01:47:06.340Z,71.33
2024-03-22T01:48:06.393Z,71.38
2024-03-22T01:49:06.436Z,71.27
2024-03-22T01:50:06.518Z,71.13
2024-03-22T01:51:06.553Z,71.03
2024-03-22T01:52:06.615Z,71.14
2024-03-22T01:53:06.663Z,71.13
2024-03-22T01:54:06.704Z,71.32
2024-03-22T01:55:06.760Z,71.47
2024-03-22T01:56:06.805Z,71.57
2024-03-22T01:57:06.875Z,71.28
2024-03-22T01:58:06.914Z,71.28
2024-03-22T01:59:06.968Z,71.18
2024-03-22T02:00:07.023Z,71.21
2024-03-22T02:01:07.089Z,70.88
2024-03-22T02:02:07.119Z,70.81
2024-03-22T02:03:07.136Z,70.74
2024-03-22T02:04:07.187Z,70.70
2024-03-22T02:05:07.243Z,70.80
2024-03-22T02:06:07.311Z,70.90
2024-03-22T02:07:07.367Z,70.95
2024-03-22T02:08:07.434Z,70.86
2024-03-22T02:09:07.493Z,70.88
2024-03-22T02:10:07.559Z,70.80
2024-03-22T02:11:07.627Z,70.68
2024-03-22T02:12:07.661Z,70.62
2024-03-22T02:13:07.727Z,70.73
2024-03-22T02:14:07.787Z,70.70
2024-03-22T02:15:07.798Z,70.87
2024-03-22T02:16:07.814Z,71.14
2024-03-22T02:17:08.689Z,71.17
2024-03-22T02:18:07.867Z,71.15
2024-03-22T02:19:07.870Z,71.32
2024-03-22T02:20:07.939Z,71.59
2024-03-22T02:21:08.000Z,71.68
2024-03-22T02:22:08.080Z,71.50
2024-03-22T02:23:08.111Z,71.43
2024-03-22T02:24:08.134Z,71.09
2024-03-22T02:25:08.143Z,71.01
2024-03-22T02:26:08.174Z,71.04
2024-03-22T02:27:10.640Z,70.94
2024-03-22T02:28:08.188Z,70.90
2024-03-22T02:29:08.194Z,71.13
2024-03-22T02:30:08.193Z,71.44
2024-03-22T02:31:08.199Z,71.85
2024-03-22T02:32:08.183Z,72.16
2024-03-22T02:33:08.184Z,72.35
2024-03-22T02:34:08.181Z,72.55
2024-03-22T02:35:08.178Z,72.51
2024-03-22T02:36:08.183Z,72.19
2024-03-22T02:37:08.167Z,72.32
2024-03-22T02:38:08.181Z,71.99
2024-03-22T02:39:08.184Z,71.89
2024-03-22T02:40:08.176Z,72.02
2024-03-22T02:41:08.165Z,71.84
2024-03-22T02:42:08.171Z,71.85
2024-03-22T02:43:08.177Z,71.96
2024-03-22T02:44:08.186Z,71.95
2024-03-22T02:45:08.197Z,71.74
2024-03-22T02:46:08.208Z,71.73
2024-03-22T02:47:08.183Z,71.72
2024-03-22T02:48:08.178Z,71.59
2024-03-22T02:49:08.168Z,71.67
2024-03-22T02:50:08.180Z,71.57
2024-03-22T02:51:08.159Z,71.66
2024-03-22T02:52:08.141Z,71.83
2024-03-22T02:53:08.156Z,71.95
2024-03-22T02:54:08.131Z,71.91
2024-03-22T02:55:08.188Z,71.78
2024-03-22T02:56:08.121Z,71.80
2024-03-22T02:57:08.119Z,71.84
2024-03-22T02:58:08.132Z,72.15
2024-03-22T02:59:08.116Z,72.48
2024-03-22T03:00:08.124Z,72.85
2024-03-22T03:01:08.120Z,72.88
2024-03-22T03:02:08.094Z,72.87
2024-03-22T03:03:08.101Z,72.66
2024-03-22T03:04:08.077Z,72.56
2024-03-22T03:05:08.062Z,72.43
2024-03-22T03:06:08.092Z,72.33
2024-03-22T03:07:08.134Z,72.27
2024-03-22T03:08:08.172Z,72.46
2024-03-22T03:09:08.219Z,72.38
2024-03-22T03:10:08.297Z,72.22
2024-03-22T03:11:08.380Z,72.07
2024-03-22T03:12:10.400Z,71.86
2024-03-22T03:13:08.436Z,71.96
2024-03-22T03:14:08.410Z,72.05
2024-03-22T03:15:08.398Z,72.11
2024-03-22T03:16:08.389Z,72.30
2024-03-22T03:17:08.400Z,72.48
2024-03-22T03:18:08.402Z,72.47
2024-03-22T03:19:08.374Z,72.35
2024-03-22T03:20:08.350Z,72.09
2024-03-22T03:21:08.359Z,71.99
2024-03-22T03:22:08.392Z,72.26
2024-03-22T03:23:08.360Z,72.36
2024-03-22T03:24:08.344Z,72.62
2024-03-22T03:25:08.408Z,72.61
2024-03-22T03:26:08.474Z,72.74
2024-03-22T03:27:08.542Z,72.80
2024-03-22T03:28:08.595Z,72.89
2024-03-22T03:29:08.661Z,73.13
2024-03-22T03:30:08.730Z,73.60
2024-03-22T03:31:08.776Z,73.32
2024-03-22T03:32:08.825Z,73.52
2024-03-22T03:33:08.903Z,73.23
2024-03-22T03:34:08.944Z,72.99
2024-03-22T03:35:09.021Z,73.02
2024-03-22T03:36:09.090Z,72.60
2024-03-22T03:37:09.136Z,72.91
2024-03-22T03:38:09.215Z,72.94
2024-03-22T03:39:09.271Z,72.55
2024-03-22T03:40:09.397Z,72.24
2024-03-22T03:41:09.380Z,72.40
2024-03-22T03:42:09.412Z,73.02
2024-03-22T03:43:09.554Z,73.04
2024-03-22T03:44:09.540Z,72.98
2024-03-22T03:45:09.605Z,72.89
2024-03-22T03:46:09.661Z,72.90
2024-03-22T03:47:09.729Z,72.75
2024-03-22T03:48:09.799Z,72.29
2024-03-22T03:49:09.860Z,71.64
2024-03-22T03:50:09.948Z,71.71
2024-03-22T03:51:09.995Z,71.73
2024-03-22T03:52:10.072Z,71.88
2024-03-22T03:53:10.121Z,71.93
2024-03-22T03:54:10.193Z,71.55
2024-03-22T03:55:10.211Z,71.48
2024-03-22T03:56:10.280Z,71.37
2024-03-22T03:57:10.315Z,71.93
2024-03-22T03:58:10.395Z,72.61
2024-03-22T03:59:10.422Z,72.74
2024-03-22T04:00:10.494Z,72.50
2024-03-22T04:01:10.506Z,72.07
2024-03-22T04:02:10.538Z,71.75
2024-03-22T04:03:10.567Z,71.73
2024-03-22T04:04:10.559Z,72.33
2024-03-22T04:05:10.590Z,72.56
2024-03-22T04:06:10.635Z,72.37
2024-03-22T04:07:10.707Z,71.99
2024-03-22T04:08:10.731Z,71.77
2024-03-22T04:09:10.762Z,71.59
2024-03-22T04:10:10.841Z,71.53
2024-03-22T04:11:10.865Z,71.58
2024-03-22T04:12:10.929Z,71.83
2024-03-22T04:13:10.998Z,72.48
2024-03-22T04:14:11.046Z,72.36
2024-03-22T04:15:11.112Z,72.00
2024-03-22T04:16:11.244Z,71.85
2024-03-22T04:17:11.266Z,71.62
2024-03-22T04:18:11.328Z,71.79
2024-03-22T04:19:11.391Z,72.28
2024-03-22T04:20:11.469Z,72.23
2024-03-22T04:21:11.519Z,72.15
2024-03-22T04:22:11.598Z,72.09
2024-03-22T04:23:11.643Z,72.12
2024-03-22T04:24:11.715Z,72.25
2024-03-22T04:25:11.774Z,71.90
2024-03-22T04:26:11.823Z,71.29
2024-03-22T04:27:11.854Z,71.37
2024-03-22T04:28:11.902Z,71.35
2024-03-22T04:29:11.943Z,71.48
2024-03-22T04:30:11.998Z,71.71
2024-03-22T04:31:12.056Z,71.98
2024-03-22T04:32:12.113Z,71.90
2024-03-22T04:33:12.156Z,72.27
2024-03-22T04:34:12.219Z,71.84
2024-03-22T04:35:12.279Z,71.72
2024-03-22T04:36:12.350Z,71.70
2024-03-22T04:37:19.723Z,71.41
2024-03-22T04:38:20.741Z,71.37
2024-03-22T04:39:20.764Z,71.31
2024-03-22T04:40:20.806Z,71.22
2024-03-22T04:41:20.852Z,71.28
2024-03-22T04:42:20.852Z,71.53
2024-03-22T04:43:20.880Z,72.07
2024-03-22T04:44:20.923Z,71.82
2024-03-22T04:45:20.949Z,72.07
2024-03-22T04:46:20.990Z,71.93
2024-03-22T04:47:21.024Z,71.41
2024-03-22T04:48:21.040Z,71.25
2024-03-22T04:49:21.079Z,71.84
2024-03-22T04:50:21.095Z,71.73
2024-03-22T04:51:21.136Z,71.71
2024-03-22T04:52:21.174Z,71.41
2024-03-22T04:53:21.193Z,71.32
2024-03-22T04:54:21.238Z,71.21
2024-03-22T04:55:21.282Z,71.62
2024-03-22T04:56:21.297Z,71.70
2024-03-22T04:57:21.352Z,72.01
2024-03-22T04:58:39.194Z,71.92
2024-03-22T04:59:40.183Z,71.79
2024-03-22T05:00:40.197Z,71.30
2024-03-22T05:01:40.210Z,71.30
2024-03-22T05:02:40.222Z,71.34
2024-03-22T05:03:40.239Z,71.38
2024-03-22T05:04:40.243Z,71.17
2024-03-22T05:05:40.256Z,71.04
2024-03-22T05:06:40.259Z,71.37
2024-03-22T05:07:40.270Z,71.28
2024-03-22T05:08:40.352Z,71.41
2024-03-22T05:09:40.317Z,71.69
2024-03-22T05:10:40.324Z,71.57
2024-03-22T05:11:40.332Z,72.16
2024-03-22T05:12:40.369Z,72.38
2024-03-22T05:13:40.372Z,72.44
2024-03-22T05:14:40.397Z,72.49
2024-03-22T05:15:40.389Z,72.31
2024-03-22T05:16:40.398Z,71.94
2024-03-22T05:17:40.401Z,71.77
2024-03-22T05:18:40.425Z,71.45
2024-03-22T05:19:40.434Z,71.23
2024-03-22T05:20:40.488Z,71.10
2024-03-22T05:21:40.467Z,70.96
2024-03-22T05:22:40.492Z,70.86
2024-03-22T05:23:40.529Z,70.63
2024-03-22T05:24:40.589Z,70.55
2024-03-22T05:25:40.694Z,70.66
2024-03-22T05:26:40.739Z,70.69
2024-03-22T05:27:40.816Z,70.93
2024-03-22T05:28:40.881Z,71.26
2024-03-22T05:29:41.044Z,71.03
2024-03-22T05:30:41.022Z,70.92
2024-03-22T05:31:41.101Z,70.86
2024-03-22T05:32:41.234Z,71.09
2024-03-22T05:33:41.829Z,71.25
2024-03-22T05:34:41.350Z,71.29
2024-03-22T05:35:41.420Z,71.19
2024-03-22T05:36:41.484Z,70.97
2024-03-22T05:37:41.564Z,71.17
2024-03-22T05:38:41.609Z,71.48
2024-03-22T05:39:41.692Z,71.51
2024-03-22T05:40:41.719Z,71.88
2024-03-22T05:41:41.811Z,71.88
2024-03-22T05:42:41.835Z,72.21
2024-03-22T05:43:41.899Z,72.51
2024-03-22T05:44:42.030Z,72.01
2024-03-22T05:45:42.055Z,71.75
2024-03-22T05:46:42.129Z,71.55
2024-03-22T05:47:42.235Z,71.71
2024-03-22T05:48:42.307Z,71.85
2024-03-22T05:49:42.405Z,71.98
2024-03-22T05:50:42.521Z,72.77
2024-03-22T05:51:42.643Z,72.65
2024-03-22T05:52:42.687Z,72.16
2024-03-22T05:53:42.832Z,72.31
2024-03-22T05:54:42.852Z,72.04
2024-03-22T05:55:42.942Z,72.10
2024-03-22T05:56:43.028Z,72.21
2024-03-22T05:57:43.096Z,71.82
2024-03-22T05:58:43.188Z,71.71
2024-03-22T05:59:43.257Z,71.41
2024-03-22T06:00:43.561Z,71.46
2024-03-22T06:01:43.399Z,71.65
2024-03-22T06:02:43.466Z,71.57
2024-03-22T06:03:43.512Z,71.84
2024-03-22T06:04:45.986Z,71.85
2024-03-22T06:05:43.620Z,71.32
2024-03-22T06:06:43.612Z,71.33
2024-03-22T06:07:43.649Z,70.67
2024-03-22T06:08:43.671Z,70.35
2024-03-22T06:09:43.668Z,70.33
2024-03-22T06:10:43.671Z,70.69
2024-03-22T06:11:43.705Z,70.54
2024-03-22T06:12:43.710Z,70.59
2024-03-22T06:13:43.734Z,70.48
2024-03-22T06:14:43.777Z,70.45
2024-03-22T06:15:43.762Z,70.32
2024-03-22T06:16:43.779Z,70.20
2024-03-22T06:17:43.779Z,70.23
2024-03-22T06:18:43.782Z,69.65
2024-03-22T06:19:43.817Z,69.47
2024-03-22T06:20:43.830Z,69.58
2024-03-22T06:21:43.858Z,69.07
2024-03-22T06:22:43.832Z,69.16
2024-03-22T06:23:43.927Z,69.12
2024-03-22T06:24:43.908Z,69.44
2024-03-22T06:25:43.887Z,68.83
2024-03-22T06:26:46.072Z,68.69
2024-03-22T06:27:45.732Z,68.61
2024-03-22T06:28:43.940Z,68.67
2024-03-22T06:29:43.961Z,68.45
2024-03-22T06:30:43.943Z,68.73
2024-03-22T06:31:43.953Z,68.62
2024-03-22T06:32:44.346Z,68.58
2024-03-22T06:33:44.009Z,68.72
2024-03-22T06:34:44.017Z,69.07
2024-03-22T06:35:44.015Z,69.10
2024-03-22T06:36:44.317Z,68.86
2024-03-22T06:37:44.055Z,68.65
2024-03-22T06:38:44.059Z,68.90
2024-03-22T06:39:44.082Z,69.56
2024-03-22T06:40:44.073Z,69.12
2024-03-22T06:41:44.129Z,69.12
2024-03-22T06:42:44.107Z,69.46
2024-03-22T06:43:44.108Z,68.68
2024-03-22T06:44:44.123Z,69.11
2024-03-22T06:45:44.146Z,68.78
2024-03-22T06:46:44.157Z,68.64
2024-03-22T06:47:44.414Z,68.93
2024-03-22T06:48:44.205Z,68.57
2024-03-22T06:49:44.190Z,68.82
2024-03-22T06:50:44.219Z,68.70
2024-03-22T06:51:44.236Z,68.28
2024-03-22T06:52:44.330Z,68.35
2024-03-22T06:53:44.275Z,68.32
2024-03-22T06:54:44.270Z,68.44
2024-03-22T06:55:44.329Z,68.52
2024-03-22T06:56:44.378Z,68.65
2024-03-22T06:57:44.832Z,68.44
2024-03-22T06:58:44.486Z,68.43
2024-03-22T06:59:47.759Z,67.93
2024-03-22T07:00:44.554Z,67.95
2024-03-22T07:01:44.546Z,68.76
2024-03-22T07:02:44.834Z,68.84
2024-03-22T07:03:45.030Z,68.60
2024-03-22T07:04:44.859Z,68.64
2024-03-22T07:05:44.562Z,68.29
2024-03-22T07:06:44.832Z,68.31
2024-03-22T07:07:44.554Z,68.60
2024-03-22T07:08:44.623Z,68.90
2024-03-22T07:09:44.890Z,68.21
2024-03-22T07:10:44.574Z,68.41
2024-03-22T07:11:45.074Z,68.05
2024-03-22T07:12:44.659Z,68.20
2024-03-22T07:13:44.590Z,68.19
2024-03-22T07:14:44.630Z,68.16
2024-03-22T07:15:44.646Z,68.52
2024-03-22T07:16:44.826Z,68.20
2024-03-22T07:17:44.778Z,68.22
2024-03-22T07:18:44.867Z,67.96
2024-03-22T07:19:44.680Z,68.15
2024-03-22T07:20:44.907Z,67.94
2024-03-22T07:21:44.859Z,68.22
2024-03-22T07:22:44.772Z,68.57
2024-03-22T07:23:44.735Z,68.55
2024-03-22T07:24:44.753Z,68.75
2024-03-22T07:25:44.803Z,68.62
2024-03-22T07:26:44.828Z,68.42
2024-03-22T07:27:44.855Z,68.19
2024-03-22T07:28:45.220Z,68.27
2024-03-22T07:29:45.184Z,68.01
2024-03-22T07:30:45.034Z,67.99
2024-03-22T07:31:45.916Z,68.02
2024-03-22T07:32:45.639Z,68.00
2024-03-22T07:33:45.509Z,67.68
2024-03-22T07:34:45.501Z,67.45
2024-03-22T07:35:45.542Z,67.52
2024-03-22T07:36:45.876Z,67.10
2024-03-22T07:37:45.630Z,67.33
2024-03-22T07:38:45.687Z,67.08
2024-03-22T07:39:45.256Z,66.70
2024-03-22T07:40:45.318Z,66.72
2024-03-22T07:41:45.994Z,66.44
2024-03-22T07:42:45.526Z,66.77
2024-03-22T07:43:45.573Z,66.37
2024-03-22T07:44:45.899Z,66.26
2024-03-22T07:45:46.072Z,65.22
2024-03-22T07:46:46.097Z,64.41
2024-03-22T07:47:45.622Z,63.46
2024-03-22T07:48:45.607Z,63.74
2024-03-22T07:49:45.604Z,63.54
2024-03-22T07:50:45.638Z,63.45
2024-03-22T07:51:45.843Z,63.25
2024-03-22T07:52:45.901Z,62.92
2024-03-22T07:53:45.832Z,62.97
2024-03-22T07:54:45.768Z,63.04
2024-03-22T07:55:45.866Z,62.88
2024-03-22T07:56:46.000Z,62.27
2024-03-22T07:57:46.265Z,62.37
2024-03-22T07:58:45.920Z,62.24
2024-03-22T07:59:45.992Z,62.33
2024-03-22T08:00:45.992Z,62.21
2024-03-22T08:01:46.403Z,62.71
2024-03-22T08:02:46.003Z,62.80
2024-03-22T08:03:46.437Z,62.66
2024-03-22T08:04:46.422Z,61.60
2024-03-22T08:05:46.887Z,61.08
2024-03-22T08:06:46.913Z,60.98
2024-03-22T08:07:46.345Z,60.79
2024-03-22T08:08:46.168Z,61.03
2024-03-22T08:09:46.222Z,60.80
2024-03-22T08:10:46.277Z,61.21
2024-03-22T08:11:46.229Z,60.49
2024-03-22T08:12:46.294Z,60.22
2024-03-22T08:13:46.324Z,60.20
2024-03-22T08:14:46.356Z,60.56
2024-03-22T08:15:46.394Z,60.15
2024-03-22T08:16:46.399Z,59.89
2024-03-22T08:17:46.434Z,59.85
2024-03-22T08:18:46.440Z,59.82
2024-03-22T08:19:46.458Z,60.00
2024-03-22T08:20:46.709Z,60.12
2024-03-22T08:21:46.584Z,60.39
2024-03-22T08:22:46.605Z,60.35
2024-03-22T08:23:46.914Z,60.18
2024-03-22T08:24:46.852Z,59.87
2024-03-22T08:25:46.735Z,59.86
2024-03-22T08:26:46.725Z,60.21
2024-03-22T08:27:59.707Z,61.05
2024-03-22T08:28:47.119Z,60.99
2024-03-22T08:29:47.853Z,60.73
2024-03-22T08:30:46.702Z,60.13
2024-03-22T08:31:46.859Z,59.97
2024-03-22T08:32:46.599Z,60.45
2024-03-22T08:33:46.861Z,60.12
2024-03-22T08:34:46.629Z,60.01
2024-03-22T08:35:46.880Z,60.44
2024-03-22T08:36:46.540Z,60.88
2024-03-22T08:37:46.530Z,60.19
2024-03-22T08:38:46.528Z,60.10
2024-03-22T08:39:46.561Z,60.21
2024-03-22T08:40:46.501Z,60.07
2024-03-22T08:41:47.010Z,60.50
2024-03-22T08:42:46.459Z,60.35
2024-03-22T08:43:45.856Z,60.33
2024-03-22T08:44:46.769Z,60.05
2024-03-22T08:45:46.435Z,59.90
2024-03-22T08:46:46.899Z,59.49
2024-03-22T08:47:46.429Z,59.56
2024-03-22T08:48:46.409Z,60.11
2024-03-22T08:49:46.898Z,60.26
2024-03-22T08:50:46.428Z,60.57
2024-03-22T08:51:46.454Z,60.66
2024-03-22T08:52:46.463Z,59.68
2024-03-22T08:53:46.610Z,59.46
2024-03-22T08:54:46.852Z,58.82
2024-03-22T08:55:46.520Z,58.58
2024-03-22T08:56:46.884Z,59.12
2024-03-22T08:57:54.238Z,60.00
2024-03-22T08:58:46.547Z,59.72
2024-03-22T08:59:46.890Z,59.15
2024-03-22T09:00:46.498Z,58.62
2024-03-22T09:01:46.507Z,58.47
2024-03-22T09:02:46.482Z,58.64
2024-03-22T09:03:46.481Z,58.83
2024-03-22T09:04:46.885Z,58.91
2024-03-22T09:05:53.009Z,58.03
2024-03-22T09:06:46.402Z,58.33
2024-03-22T09:07:47.350Z,58.10
2024-03-22T09:08:46.536Z,57.68
2024-03-22T09:09:46.867Z,58.04
2024-03-22T09:10:46.628Z,57.89
2024-03-22T09:11:46.556Z,58.04
2024-03-22T09:12:46.584Z,58.53
2024-03-22T09:13:46.561Z,58.35
2024-03-22T09:14:46.860Z,58.04
2024-03-22T09:15:46.925Z,57.59
2024-03-22T09:16:46.565Z,57.96
2024-03-22T09:17:46.862Z,58.11
2024-03-22T09:18:46.521Z,57.80
2024-03-22T09:19:46.519Z,57.91
2024-03-22T09:20:46.559Z,57.89
2024-03-22T09:21:46.565Z,57.25
2024-03-22T09:22:47.854Z,56.81
2024-03-22T09:23:46.632Z,57.41
2024-03-22T09:24:46.541Z,57.18
2024-03-22T09:25:48.409Z,57.55
2024-03-22T09:26:46.867Z,57.22
2024-03-22T09:27:46.903Z,57.21
2024-03-22T09:28:46.893Z,56.88
2024-03-22T09:29:46.445Z,56.95
2024-03-22T09:30:56.463Z,57.33
2024-03-22T09:31:46.630Z,57.50
2024-03-22T09:32:46.361Z,57.41
2024-03-22T09:33:46.336Z,57.05
2024-03-22T09:34:46.297Z,56.88
2024-03-22T09:35:46.311Z,56.43
2024-03-22T09:36:46.230Z,56.41
2024-03-22T09:37:46.361Z,56.49
2024-03-22T09:38:46.146Z,56.62
2024-03-22T09:39:46.172Z,55.99
2024-03-22T09:40:46.150Z,55.95
2024-03-22T09:41:49.040Z,56.29
2024-03-22T09:42:46.369Z,56.45
2024-03-22T09:43:46.002Z,55.98
2024-03-22T09:44:49.194Z,55.52
2024-03-22T09:45:45.915Z,55.74
2024-03-22T09:46:45.891Z,55.51
2024-03-22T09:47:45.882Z,55.35
2024-03-22T09:48:45.818Z,55.44
2024-03-22T09:49:45.822Z,55.42
2024-03-22T09:50:45.778Z,55.60
2024-03-22T09:51:45.697Z,54.94
2024-03-22T09:52:45.878Z,54.74
2024-03-22T09:53:47.096Z,54.86
2024-03-22T09:54:45.568Z,54.54
2024-03-22T09:55:45.529Z,54.51
2024-03-22T09:56:45.493Z,54.18
2024-03-22T09:57:45.462Z,54.01
2024-03-22T09:58:45.397Z,53.79
2024-03-22T09:59:46.338Z,54.04
2024-03-22T10:00:45.408Z,54.40
2024-03-22T10:01:45.352Z,54.62
2024-03-22T10:02:45.378Z,54.73
2024-03-22T10:03:45.181Z,54.74
2024-03-22T10:04:45.158Z,54.75
2024-03-22T10:05:46.798Z,53.84
2024-03-22T10:06:45.078Z,53.55
2024-03-22T10:07:45.381Z,52.76
2024-03-22T10:08:45.034Z,53.08
2024-03-22T10:09:45.039Z,52.24
2024-03-22T10:10:44.976Z,52.35
2024-03-22T10:11:46.605Z,52.53
2024-03-22T10:12:46.395Z,52.70
2024-03-22T10:13:45.008Z,51.84
2024-03-22T10:14:45.404Z,52.27
2024-03-22T10:15:45.087Z,52.48
2024-03-22T10:16:45.111Z,52.06
2024-03-22T10:17:45.109Z,51.48
2024-03-22T10:18:45.376Z,50.83
2024-03-22T10:19:45.079Z,50.73
2024-03-22T10:20:45.027Z,50.94
2024-03-22T10:21:46.003Z,50.72
2024-03-22T10:22:45.516Z,50.74
2024-03-22T10:23:44.920Z,50.90
2024-03-22T10:24:44.895Z,50.81
2024-03-22T10:25:44.837Z,49.38
2024-03-22T10:26:44.852Z,49.42
2024-03-22T10:27:44.834Z,49.35
2024-03-22T10:28:44.976Z,48.57
2024-03-22T10:29:46.452Z,49.25
2024-03-22T10:30:44.759Z,48.94
2024-03-22T10:31:44.731Z,48.25
2024-03-22T10:32:45.002Z,48.44
2024-03-22T10:33:44.710Z,48.53
2024-03-22T10:34:44.949Z,49.02
2024-03-22T10:35:44.597Z,50.16
2024-03-22T10:36:44.482Z,51.15
2024-03-22T10:37:47.900Z,51.34
2024-03-22T10:38:44.407Z,51.33
2024-03-22T10:39:44.356Z,49.15
2024-03-22T10:40:44.369Z,47.93
2024-03-22T10:41:44.980Z,47.42
2024-03-22T10:42:44.457Z,47.42
2024-03-22T10:43:45.843Z,47.63
2024-03-22T10:44:44.432Z,48.26
2024-03-22T10:45:44.178Z,48.44
2024-03-22T10:46:44.012Z,49.01
2024-03-22T10:47:44.033Z,48.99
2024-03-22T10:48:43.942Z,48.30
2024-03-22T10:49:44.662Z,49.02
2024-03-22T10:50:43.837Z,49.01
2024-03-22T10:51:43.794Z,49.02
2024-03-22T10:52:43.717Z,47.02
2024-03-22T10:53:43.669Z,47.49
2024-03-22T10:54:43.930Z,48.51
2024-03-22T10:55:43.619Z,47.46
2024-03-22T10:56:43.564Z,46.88
2024-03-22T10:57:44.461Z,46.30
2024-03-22T10:58:43.504Z,47.12
2024-03-22T10:59:43.384Z,46.00
2024-03-22T11:00:45.242Z,46.45
2024-03-22T11:01:43.257Z,46.51
2024-03-22T11:02:43.247Z,46.32
2024-03-22T11:03:43.256Z,46.78
2024-03-22T11:04:43.449Z,46.99
2024-03-22T11:05:43.135Z,46.61
2024-03-22T11:06:43.005Z,46.49
2024-03-22T11:07:42.960Z,46.33
2024-03-22T11:08:42.884Z,46.29
2024-03-22T11:09:42.891Z,46.15
2024-03-22T11:10:42.801Z,46.57
2024-03-22T11:11:42.709Z,46.25
2024-03-22T11:12:44.167Z,46.24
2024-03-22T11:13:42.901Z,46.06
2024-03-22T11:14:42.901Z,46.01
2024-03-22T11:15:41.738Z,45.81
2024-03-22T11:16:42.786Z,46.15
2024-03-22T11:17:42.724Z,45.53
2024-03-22T11:18:42.694Z,45.36
2024-03-22T11:19:43.008Z,45.24
2024-03-22T11:20:44.556Z,45.47
2024-03-22T11:21:42.679Z,45.12
2024-03-22T11:22:42.862Z,44.97
2024-03-22T11:23:42.612Z,44.78
2024-03-22T11:24:42.449Z,44.02
2024-03-22T11:25:43.031Z,44.68
2024-03-22T11:26:44.688Z,45.22
2024-03-22T11:27:42.279Z,44.91
2024-03-22T11:28:42.275Z,44.84
2024-03-22T11:29:42.146Z,44.83
2024-03-22T11:30:42.410Z,44.80
2024-03-22T11:31:42.029Z,44.98
2024-03-22T11:32:41.979Z,45.41
2024-03-22T11:33:41.866Z,44.49
2024-03-22T11:34:42.052Z,43.46
2024-03-22T11:35:41.760Z,43.93
2024-03-22T11:36:41.736Z,43.69
2024-03-22T11:37:41.604Z,43.43
2024-03-22T11:38:41.582Z,42.22
2024-03-22T11:39:41.461Z,42.63
2024-03-22T11:40:43.301Z,43.39
2024-03-22T11:41:41.312Z,42.93
2024-03-22T11:42:41.991Z,42.45
2024-03-22T11:43:41.593Z,42.30
2024-03-22T11:44:41.622Z,42.87
2024-03-22T11:45:40.714Z,42.54
2024-03-22T11:46:41.342Z,42.56
2024-03-22T11:47:41.683Z,42.00
2024-03-22T11:48:41.215Z,41.53
2024-03-22T11:49:41.343Z,41.98
2024-03-22T11:50:41.081Z,41.13
2024-03-22T11:51:40.946Z,41.63
2024-03-22T11:52:41.030Z,41.38
2024-03-22T11:53:40.880Z,40.73
2024-03-22T11:54:40.762Z,40.51
2024-03-22T11:55:40.893Z,41.39
2024-03-22T11:56:41.618Z,41.32
2024-03-22T11:57:40.043Z,42.24
2024-03-22T11:58:39.951Z,40.44
2024-03-22T11:59:39.856Z,40.24
2024-03-22T12:01:03.021Z,39.50
2024-03-22T12:01:39.794Z,39.33
2024-03-22T12:02:39.640Z,39.52
2024-03-22T12:03:39.602Z,39.71
2024-03-22T12:04:40.465Z,39.91
2024-03-22T12:05:39.975Z,39.66
2024-03-22T12:06:39.345Z,39.39
2024-03-22T12:07:39.245Z,39.70
2024-03-22T12:08:39.162Z,39.86
2024-03-22T12:09:39.070Z,40.17
2024-03-22T12:10:39.408Z,39.78
2024-03-22T12:11:38.942Z,39.32
2024-03-22T12:12:38.797Z,40.40
2024-03-22T12:13:38.731Z,40.28
2024-03-22T12:14:38.713Z,40.89
2024-03-22T12:15:38.691Z,40.87
2024-03-22T12:16:38.643Z,41.78
2024-03-22T12:17:38.616Z,41.31
2024-03-22T12:18:38.583Z,41.41
2024-03-22T12:19:38.612Z,41.58
2024-03-22T12:20:39.218Z,40.39
2024-03-22T12:21:38.472Z,39.41
2024-03-22T12:22:38.916Z,38.83
2024-03-22T12:23:38.429Z,39.08
2024-03-22T12:24:38.413Z,39.43
2024-03-22T12:25:38.373Z,39.21
2024-03-22T12:26:38.423Z,39.26
2024-03-22T12:27:39.798Z,39.76
2024-03-22T12:28:38.161Z,39.19
2024-03-22T12:29:38.111Z,39.42
2024-03-22T12:31:09.843Z,38.05
2024-03-22T12:31:37.955Z,38.78
2024-03-22T12:32:37.884Z,38.79
2024-03-22T12:33:37.915Z,38.61
2024-03-22T12:34:37.689Z,39.22
2024-03-22T12:35:37.612Z,39.28
2024-03-22T12:36:37.518Z,39.31
2024-03-22T12:37:37.952Z,39.38
2024-03-22T12:38:37.350Z,39.48
2024-03-22T12:39:37.280Z,39.13
2024-03-22T12:40:37.519Z,37.94
2024-03-22T12:41:37.252Z,37.56
2024-03-22T12:42:37.225Z,37.77
2024-03-22T12:43:43.722Z,38.25
2024-03-22T12:44:37.117Z,38.46
2024-03-22T12:45:37.043Z,38.54
2024-03-22T12:46:36.997Z,38.28
2024-03-22T12:47:36.874Z,37.89
2024-03-22T12:48:36.795Z,38.06
2024-03-22T12:49:36.709Z,38.47
2024-03-22T12:50:36.602Z,38.45
2024-03-22T12:51:36.955Z,38.69
2024-03-22T12:52:36.436Z,38.03
2024-03-22T12:53:36.360Z,36.61
2024-03-22T12:54:36.266Z,36.43
2024-03-22T12:55:36.172Z,36.61
2024-03-22T12:56:36.126Z,36.83
2024-03-22T12:57:35.993Z,36.98
2024-03-22T12:58:35.985Z,36.35
2024-03-22T12:59:35.808Z,36.09
2024-03-22T13:00:35.706Z,36.08
2024-03-22T13:01:35.623Z,35.76
2024-03-22T13:02:35.950Z,35.62
2024-03-22T13:03:35.427Z,35.75
2024-03-22T13:04:35.330Z,36.21
2024-03-22T13:05:35.226Z,36.58
2024-03-22T13:06:35.116Z,36.63
2024-03-22T13:07:35.041Z,36.77
2024-03-22T13:08:34.946Z,36.38
2024-03-22T13:09:34.869Z,36.21
2024-03-22T13:10:34.742Z,36.34
2024-03-22T13:11:34.642Z,36.26
2024-03-22T13:12:34.579Z,36.60
2024-03-22T13:13:34.450Z,36.30
2024-03-22T13:14:34.373Z,35.58
2024-03-22T13:15:34.265Z,36.00
2024-03-22T13:16:34.183Z,35.52
2024-03-22T13:17:34.083Z,35.50
2024-03-22T13:18:33.969Z,35.53
2024-03-22T13:19:33.892Z,35.55
2024-03-22T13:20:33.781Z,36.11
2024-03-22T13:21:33.652Z,35.22
2024-03-22T13:22:33.970Z,34.76
2024-03-22T13:23:34.582Z,34.78
2024-03-22T13:24:33.437Z,34.75
2024-03-22T13:25:33.368Z,34.68
2024-03-22T13:26:33.326Z,35.08
2024-03-22T13:27:33.303Z,35.06
2024-03-22T13:28:33.282Z,34.57
2024-03-22T13:29:33.186Z,34.37
2024-03-22T13:30:33.155Z,34.10
2024-03-22T13:31:36.136Z,34.38
2024-03-22T13:32:33.438Z,34.81
2024-03-22T13:33:32.914Z,34.41
2024-03-22T13:34:32.825Z,34.41
2024-03-22T13:35:32.687Z,33.90
2024-03-22T13:36:32.611Z,34.29
2024-03-22T13:37:32.477Z,34.28
2024-03-22T13:38:32.384Z,34.51
2024-03-22T13:39:32.269Z,34.21
2024-03-22T13:40:32.162Z,34.40
2024-03-22T13:41:32.038Z,34.07
2024-03-22T13:42:32.452Z,33.89
2024-03-22T13:43:31.832Z,33.39
2024-03-22T13:44:31.758Z,31.74
2024-03-22T13:45:33.894Z,31.96